createdAt,value
2018-01-26T00:01:34.115Z,6.37
2018-01-26T00:04:01.535Z,3.60
2018-01-26T00:06:28.958Z,4.63
2018-01-26T00:08:56.382Z,5.20
2018-01-26T00:11:23.807Z,6.20
2018-01-26T00:13:51.239Z,6.80
2018-01-26T00:16:18.771Z,4.60
2018-01-26T00:18:46.199Z,6.20
2018-01-26T00:21:13.610Z,5.00
2018-01-26T00:23:41.800Z,6.07
2018-01-26T00:26:09.215Z,5.60
2018-01-26T00:28:36.641Z,5.50
2018-01-26T00:31:04.056Z,4.20
2018-01-26T00:33:32.248Z,4.70
2018-01-26T00:35:59.667Z,4.10
2018-01-26T00:38:27.091Z,3.30
2018-01-26T00:40:54.512Z,4.07
2018-01-26T00:43:21.940Z,2.70
2018-01-26T00:45:49.359Z,3.10
2018-01-26T00:48:16.780Z,2.90
2018-01-26T00:50:44.195Z,3.50
2018-01-26T00:53:11.627Z,4.17
2018-01-26T00:55:39.044Z,2.40
2018-01-26T00:58:06.464Z,2.80
2018-01-26T01:00:33.888Z,2.50
2018-01-26T01:03:01.307Z,2.80
2018-01-26T01:05:28.731Z,3.70
2018-01-26T01:07:56.151Z,2.80
2018-01-26T01:10:23.575Z,3.00
2018-01-26T01:12:50.992Z,2.63
2018-01-26T01:15:18.421Z,2.23
2018-01-26T01:17:45.830Z,2.10
2018-01-26T01:20:13.255Z,3.70
2018-01-26T01:22:40.672Z,2.63
2018-01-26T01:25:08.095Z,3.30
2018-01-26T01:27:36.279Z,2.87
2018-01-26T01:30:03.732Z,2.47
2018-01-26T01:32:31.128Z,2.30
2018-01-26T01:34:58.564Z,3.17
2018-01-26T01:37:25.982Z,3.00
2018-01-26T01:39:54.176Z,2.90
2018-01-26T01:42:21.583Z,3.30
2018-01-26T01:44:49.021Z,3.30
2018-01-26T01:47:16.440Z,2.20
2018-01-26T01:49:44.632Z,1.97
2018-01-26T01:52:12.048Z,2.40
2018-01-26T01:54:39.478Z,1.90
2018-01-26T01:57:06.896Z,3.03
2018-01-26T01:59:34.311Z,2.20
2018-01-26T02:02:01.732Z,2.00
2018-01-26T02:04:29.284Z,3.90
2018-01-26T02:06:56.715Z,2.90
2018-01-26T02:09:24.139Z,2.80
2018-01-26T02:11:51.563Z,3.00
2018-01-26T02:14:19.076Z,2.77
2018-01-26T02:16:46.603Z,2.60
2018-01-26T02:19:14.019Z,2.83
2018-01-26T02:21:41.447Z,3.27
2018-01-26T02:24:26.472Z,3.30
2018-01-26T02:26:53.904Z,3.37
2018-01-26T02:29:21.320Z,4.60
2018-01-26T02:31:48.748Z,3.87
2018-01-26T02:34:16.168Z,3.87
2018-01-26T02:36:43.596Z,3.20
2018-01-26T02:39:11.011Z,3.47
2018-01-26T02:41:38.440Z,4.13
2018-01-26T02:44:05.856Z,2.50
2018-01-26T02:46:33.287Z,3.27
2018-01-26T02:49:00.703Z,3.10
2018-01-26T02:51:28.131Z,4.03
2018-01-26T02:53:55.551Z,2.17
2018-01-26T02:56:22.971Z,2.77
2018-01-26T02:58:50.400Z,3.30
2018-01-26T03:01:17.810Z,3.20
2018-01-26T03:03:45.531Z,2.73
2018-01-26T03:06:12.951Z,3.27
2018-01-26T03:08:40.379Z,2.37
2018-01-26T03:11:07.800Z,3.97
2018-01-26T03:13:35.223Z,2.23
2018-01-26T03:16:03.403Z,2.70
2018-01-26T03:18:30.892Z,3.20
2018-01-26T03:20:58.348Z,3.37
2018-01-26T03:23:25.784Z,3.33
2018-01-26T03:25:53.195Z,3.50
2018-01-26T03:28:20.631Z,3.50
2018-01-26T03:30:48.046Z,3.40
2018-01-26T03:33:15.472Z,4.83
2018-01-26T03:35:43.650Z,4.13
2018-01-26T03:38:11.080Z,3.63
2018-01-26T03:40:38.504Z,4.07
2018-01-26T03:43:05.915Z,4.90
2018-01-26T03:45:34.107Z,3.80
2018-01-26T03:48:01.524Z,3.83
2018-01-26T03:50:28.960Z,3.93
2018-01-26T03:52:56.388Z,4.90
2018-01-26T03:55:23.807Z,5.03
2018-01-26T03:57:52.030Z,4.07
2018-01-26T04:00:19.459Z,4.70
2018-01-26T04:02:46.880Z,5.10
2018-01-26T04:05:14.302Z,4.77
2018-01-26T04:07:41.727Z,4.97
2018-01-26T04:10:09.912Z,4.60
2018-01-26T04:12:37.327Z,4.87
2018-01-26T04:15:04.755Z,4.30
2018-01-26T04:17:32.175Z,5.20
2018-01-26T04:19:59.599Z,4.93
2018-01-26T04:22:27.018Z,5.50
2018-01-26T04:24:54.449Z,5.23
2018-01-26T04:27:21.868Z,4.40
2018-01-26T04:29:49.464Z,4.70
2018-01-26T04:32:16.880Z,4.70
2018-01-26T04:34:45.059Z,5.13
2018-01-26T04:37:12.480Z,6.27
2018-01-26T04:39:39.900Z,6.43
2018-01-26T04:42:07.331Z,4.97
2018-01-26T04:44:35.510Z,5.90
2018-01-26T04:47:02.936Z,6.13
2018-01-26T04:49:31.120Z,5.67
2018-01-26T04:51:58.534Z,5.63
2018-01-26T04:54:25.955Z,4.70
2018-01-26T04:56:53.379Z,6.07
2018-01-26T04:59:20.799Z,6.70
2018-01-26T05:01:48.264Z,5.43
2018-01-26T05:04:15.681Z,7.67
2018-01-26T05:06:43.103Z,6.57
2018-01-26T05:09:11.371Z,5.50
2018-01-26T05:11:38.803Z,8.63
2018-01-26T05:14:06.218Z,11.57
2018-01-26T05:16:33.648Z,7.90
2018-01-26T05:19:01.063Z,6.30
2018-01-26T05:21:28.495Z,6.43
2018-01-26T05:23:55.911Z,5.70
2018-01-26T05:26:23.327Z,7.37
2018-01-26T05:28:50.762Z,7.90
2018-01-26T05:31:18.184Z,5.23
2018-01-26T05:33:45.611Z,5.50
2018-01-26T05:36:13.022Z,5.73
2018-01-26T05:38:40.500Z,6.00
2018-01-26T05:41:07.921Z,5.23
2018-01-26T05:43:35.339Z,5.17
2018-01-26T05:46:02.756Z,4.80
2018-01-26T05:48:30.179Z,4.20
2018-01-26T05:50:58.360Z,2.30
2018-01-26T05:53:25.796Z,2.60
2018-01-26T05:55:53.206Z,2.60
2018-01-26T05:58:20.648Z,7.80
2018-01-26T06:00:48.068Z,11.70
2018-01-26T06:03:15.563Z,14.60
2018-01-26T06:05:42.984Z,21.53
2018-01-26T06:08:11.207Z,17.03
2018-01-26T06:10:38.626Z,16.80
2018-01-26T06:13:06.055Z,16.23
2018-01-26T06:15:33.479Z,11.20
2018-01-26T06:18:00.907Z,11.37
2018-01-26T06:20:28.331Z,12.37
2018-01-26T06:22:56.639Z,14.77
2018-01-26T06:25:24.198Z,18.40
2018-01-26T06:27:51.623Z,12.27
2018-01-26T06:30:19.051Z,11.80
2018-01-26T06:32:46.476Z,7.40
2018-01-26T06:35:13.900Z,6.10
2018-01-26T06:37:41.314Z,7.10
2018-01-26T06:40:08.746Z,4.93
2018-01-26T06:42:36.164Z,4.33
2018-01-26T06:45:03.672Z,3.67
2018-01-26T06:47:31.091Z,7.03
2018-01-26T06:49:58.515Z,4.37
2018-01-26T06:52:25.931Z,4.43
2018-01-26T06:54:53.492Z,3.30
2018-01-26T06:57:20.911Z,4.37
2018-01-26T06:59:48.336Z,5.20
2018-01-26T07:02:15.763Z,4.03
2018-01-26T07:04:43.191Z,4.23
2018-01-26T07:07:10.613Z,3.97
2018-01-26T07:09:38.020Z,4.10
2018-01-26T07:12:05.447Z,4.40
2018-01-26T07:14:33.080Z,4.03
2018-01-26T07:17:00.502Z,4.73
2018-01-26T07:19:27.924Z,5.03
2018-01-26T07:21:55.348Z,6.20
2018-01-26T07:24:22.768Z,6.20
2018-01-26T07:26:50.196Z,4.63
2018-01-26T07:29:17.616Z,4.07
2018-01-26T07:31:45.336Z,4.17
2018-01-26T07:34:12.751Z,4.63
2018-01-26T07:36:40.250Z,3.30
2018-01-26T07:39:07.659Z,3.80
2018-01-26T07:41:35.088Z,4.13
2018-01-26T07:44:02.512Z,3.40
2018-01-26T07:46:29.935Z,3.63
2018-01-26T07:48:58.120Z,4.60
2018-01-26T07:51:25.545Z,4.00
2018-01-26T07:53:52.962Z,3.77
2018-01-26T07:56:20.374Z,4.03
2018-01-26T07:58:47.799Z,2.90
2018-01-26T08:01:16.032Z,2.47
2018-01-26T08:03:43.459Z,2.93
2018-01-26T08:06:10.872Z,3.70
2018-01-26T08:08:38.306Z,4.57
2018-01-26T08:11:05.727Z,4.20
2018-01-26T08:13:33.924Z,4.13
2018-01-26T08:16:01.336Z,3.90
2018-01-26T08:18:28.763Z,4.13
2018-01-26T08:20:56.179Z,4.37
2018-01-26T08:23:23.664Z,5.30
2018-01-26T08:25:51.847Z,3.87
2018-01-26T08:28:19.272Z,4.33
2018-01-26T08:30:46.688Z,4.00
2018-01-26T08:33:14.884Z,4.43
2018-01-26T08:35:42.299Z,4.97
2018-01-26T08:38:09.732Z,4.47
2018-01-26T08:40:37.156Z,4.87
2018-01-26T08:43:04.573Z,7.30
2018-01-26T08:45:31.991Z,4.77
2018-01-26T08:47:59.411Z,5.43
2018-01-26T08:50:27.595Z,5.23
2018-01-26T08:52:55.071Z,4.80
2018-01-26T08:55:32.392Z,6.03
2018-01-26T08:57:59.813Z,4.93
2018-01-26T09:00:27.239Z,4.00
2018-01-26T09:02:54.651Z,3.50
2018-01-26T09:05:22.080Z,3.27
2018-01-26T09:07:49.495Z,3.23
2018-01-26T09:10:17.713Z,2.70
2018-01-26T09:12:45.108Z,4.73
2018-01-26T09:15:12.533Z,3.57
2018-01-26T09:17:39.951Z,6.60
2018-01-26T09:20:07.379Z,2.67
2018-01-26T09:22:34.799Z,2.60
2018-01-26T09:25:02.220Z,3.13
2018-01-26T09:27:29.632Z,4.80
2018-01-26T09:29:57.059Z,2.67
2018-01-26T09:32:24.484Z,3.97
2018-01-26T09:34:51.900Z,2.90
2018-01-26T09:37:19.328Z,2.83
2018-01-26T09:39:46.753Z,5.80
2018-01-26T09:42:14.180Z,8.13
2018-01-26T09:44:41.696Z,5.03
2018-01-26T09:47:09.123Z,2.87
2018-01-26T09:49:36.711Z,3.60
2018-01-26T09:52:04.140Z,4.17
2018-01-26T09:54:31.556Z,3.57
2018-01-26T09:56:58.990Z,3.07
2018-01-26T09:59:26.404Z,2.80
2018-01-26T10:01:53.867Z,3.90
2018-01-26T10:04:21.283Z,3.87
2018-01-26T10:06:48.903Z,2.73
2018-01-26T10:09:16.339Z,2.90
2018-01-26T10:11:43.764Z,3.03
2018-01-26T10:14:11.194Z,2.73
2018-01-26T10:16:38.620Z,6.00
2018-01-26T10:19:06.068Z,2.27
2018-01-26T10:21:33.490Z,4.33
2018-01-26T10:24:01.692Z,2.53
2018-01-26T10:26:29.476Z,3.10
2018-01-26T10:28:56.908Z,2.50
2018-01-26T10:31:24.331Z,3.97
2018-01-26T10:33:51.764Z,2.47
2018-01-26T10:36:19.197Z,3.93
2018-01-26T10:38:46.623Z,2.07
2018-01-26T10:41:14.047Z,3.60
2018-01-26T10:43:41.532Z,4.90
2018-01-26T10:46:09.720Z,5.87
2018-01-26T10:48:37.144Z,3.40
2018-01-26T10:51:04.580Z,3.23
2018-01-26T10:53:32.004Z,3.85
2018-01-26T10:55:59.427Z,2.20
2018-01-26T11:00:55.371Z,2.30
2018-01-26T11:03:22.799Z,1.97
2018-01-26T11:05:50.231Z,3.83
2018-01-26T11:08:17.657Z,3.60
2018-01-26T11:10:45.092Z,3.13
2018-01-26T11:13:12.547Z,3.50
2018-01-26T11:15:39.979Z,1.80
2018-01-26T11:18:07.401Z,2.60
2018-01-26T11:20:34.840Z,1.70
2018-01-26T11:23:02.376Z,3.77
2018-01-26T11:25:29.800Z,2.50
2018-01-26T11:27:57.227Z,3.07
2018-01-26T11:30:24.651Z,2.47
2018-01-26T11:32:52.084Z,3.47
2018-01-26T11:35:19.499Z,2.40
2018-01-26T11:37:46.936Z,2.20
2018-01-26T11:40:14.360Z,1.93
2018-01-26T11:42:41.791Z,4.60
2018-01-26T11:45:09.215Z,5.63
2018-01-26T11:47:36.643Z,3.20
2018-01-26T11:50:04.074Z,2.90
2018-01-26T11:52:32.268Z,2.30
2018-01-26T11:54:59.688Z,2.30
2018-01-26T11:57:27.120Z,3.10
2018-01-26T11:59:54.549Z,3.20
2018-01-26T12:02:21.980Z,2.30
2018-01-26T12:04:49.404Z,4.00
2018-01-26T12:07:16.832Z,3.10
2018-01-26T12:09:44.268Z,3.00
2018-01-26T12:12:11.755Z,1.70
2018-01-26T12:14:39.176Z,1.60
2018-01-26T12:17:06.608Z,4.37
2018-01-26T12:19:34.031Z,2.40
2018-01-26T12:22:01.455Z,6.53
2018-01-26T12:24:28.897Z,1.93
2018-01-26T12:26:56.319Z,2.20
2018-01-26T12:29:23.755Z,1.93
2018-01-26T12:31:51.174Z,3.10
2018-01-26T12:34:18.611Z,2.43
2018-01-26T12:36:46.027Z,2.83
2018-01-26T12:39:13.468Z,1.80
2018-01-26T12:41:40.896Z,3.43
2018-01-26T12:44:08.323Z,2.57
2018-01-26T12:46:35.748Z,2.10
2018-01-26T12:49:03.180Z,3.83
2018-01-26T12:51:30.603Z,2.57
2018-01-26T12:53:58.062Z,1.90
2018-01-26T12:56:25.463Z,2.00
2018-01-26T12:58:52.897Z,2.53
2018-01-26T13:01:20.323Z,2.40
2018-01-26T13:03:47.755Z,3.37
2018-01-26T13:06:15.943Z,4.93
2018-01-26T13:08:43.371Z,2.60
2018-01-26T13:11:11.550Z,1.90
2018-01-26T13:13:38.988Z,2.40
2018-01-26T13:16:06.415Z,2.57
2018-01-26T13:18:33.839Z,4.00
2018-01-26T13:21:01.273Z,2.93
2018-01-26T13:23:28.696Z,1.70
2018-01-26T13:25:56.130Z,2.80
2018-01-26T13:28:23.547Z,3.80
2018-01-26T13:30:51.751Z,2.10
2018-01-26T13:33:19.171Z,2.57
2018-01-26T13:35:46.604Z,3.50
2018-01-26T13:38:14.029Z,3.67
2018-01-26T13:40:41.463Z,2.47
2018-01-26T13:43:09.643Z,3.77
2018-01-26T13:45:37.076Z,4.20
2018-01-26T13:48:04.500Z,2.07
2018-01-26T13:50:31.946Z,3.30
2018-01-26T13:52:59.372Z,2.23
2018-01-26T13:55:26.820Z,1.83
2018-01-26T13:57:54.239Z,1.50
2018-01-26T14:00:21.678Z,2.70
2018-01-26T14:02:49.321Z,3.35
2018-01-26T14:05:16.751Z,2.53
2018-01-26T14:07:44.200Z,2.80
2018-01-26T14:10:11.670Z,2.10
2018-01-26T14:12:39.055Z,3.13
2018-01-26T14:15:06.479Z,2.60
2018-01-26T14:17:33.916Z,3.73
2018-01-26T14:20:01.339Z,2.80
2018-01-26T14:22:28.964Z,1.90
2018-01-26T14:24:56.387Z,2.80
2018-01-26T14:27:23.815Z,3.75
2018-01-26T14:29:51.240Z,1.80
2018-01-26T14:32:18.689Z,2.23
2018-01-26T14:34:46.088Z,3.83
2018-01-26T14:37:13.515Z,2.70
2018-01-26T14:39:41.035Z,2.00
2018-01-26T14:42:08.463Z,1.80
2018-01-26T14:44:36.652Z,2.60
2018-01-26T14:47:04.075Z,2.00
2018-01-26T14:49:31.500Z,4.30
2018-01-26T14:51:58.931Z,2.80
2018-01-26T14:54:26.352Z,2.70
2018-01-26T14:56:54.556Z,3.73
2018-01-26T14:59:21.979Z,4.50
2018-01-26T15:01:49.403Z,2.17
2018-01-26T15:04:16.841Z,4.33
2018-01-26T15:06:44.260Z,2.67
2018-01-26T15:09:12.455Z,3.23
2018-01-26T15:11:39.936Z,2.37
2018-01-26T15:14:07.380Z,7.23
2018-01-26T15:16:34.807Z,3.00
2018-01-26T15:19:02.503Z,3.63
2018-01-26T15:21:29.928Z,2.43
2018-01-26T15:23:58.120Z,2.40
2018-01-26T15:26:25.548Z,4.30
2018-01-26T15:28:52.979Z,4.17
2018-01-26T15:31:20.396Z,2.83
2018-01-26T15:33:47.831Z,5.20
2018-01-26T15:36:15.255Z,2.40
2018-01-26T15:38:42.687Z,3.23
2018-01-26T15:41:10.103Z,3.73
2018-01-26T15:43:37.536Z,7.97
2018-01-26T15:46:04.957Z,3.90
2018-01-26T15:48:32.385Z,3.63
2018-01-26T15:50:59.802Z,4.10
2018-01-26T15:53:27.259Z,6.53
2018-01-26T15:55:54.677Z,5.67
2018-01-26T15:58:22.101Z,7.40
2018-01-26T16:00:49.523Z,6.80
2018-01-26T16:03:17.915Z,7.97
2018-01-26T16:05:45.501Z,7.13
2018-01-26T16:08:12.919Z,7.10
2018-01-26T16:10:40.344Z,10.60
2018-01-26T16:13:07.758Z,8.80
2018-01-26T16:15:35.192Z,6.83
2018-01-26T16:18:03.382Z,9.87
2018-01-26T16:20:30.803Z,8.33
2018-01-26T16:22:58.991Z,11.03
2018-01-26T16:25:26.415Z,11.27
2018-01-26T16:27:53.839Z,15.77
2018-01-26T16:30:21.271Z,9.77
2018-01-26T16:32:48.757Z,10.17
2018-01-26T16:35:16.180Z,7.07
2018-01-26T16:37:43.612Z,14.87
2018-01-26T16:40:11.046Z,10.60
2018-01-26T16:42:38.466Z,10.53
2018-01-26T16:45:05.907Z,10.13
2018-01-26T16:47:33.323Z,13.27
2018-01-26T16:50:00.775Z,13.57
2018-01-26T16:52:28.285Z,11.27
2018-01-26T16:54:55.704Z,11.33
2018-01-26T16:57:23.136Z,12.40
2018-01-26T16:59:50.560Z,10.60
2018-01-26T17:02:17.992Z,10.80
2018-01-26T17:04:45.403Z,9.87
2018-01-26T17:07:12.835Z,12.17
2018-01-26T17:09:40.248Z,12.13
2018-01-26T17:12:07.676Z,13.83
2018-01-26T17:14:35.859Z,11.03
2018-01-26T17:17:03.456Z,14.83
2018-01-26T17:19:31.039Z,11.63
2018-01-26T17:21:58.466Z,12.00
2018-01-26T17:24:25.887Z,12.53
2018-01-26T17:26:53.321Z,19.00
2018-01-26T17:29:20.735Z,22.90
2018-01-26T17:31:48.172Z,13.67
2018-01-26T17:34:16.356Z,12.10
2018-01-26T17:36:43.787Z,11.87
2018-01-26T17:39:11.208Z,12.60
2018-01-26T17:41:38.708Z,12.37
2018-01-26T17:44:06.136Z,11.50
2018-01-26T17:46:33.552Z,10.40
2018-01-26T17:49:01.127Z,12.37
2018-01-26T17:51:28.548Z,9.77
2018-01-26T17:53:55.976Z,10.83
2018-01-26T17:56:23.406Z,12.47
2018-01-26T17:58:50.828Z,8.80
2018-01-26T18:01:18.248Z,10.43
2018-01-26T18:03:45.683Z,10.93
2018-01-26T18:06:13.108Z,10.87
2018-01-26T18:08:40.535Z,8.47
2018-01-26T18:11:07.959Z,8.87
2018-01-26T18:13:35.377Z,8.23
2018-01-26T18:16:02.795Z,7.40
2018-01-26T18:18:30.223Z,8.30
2018-01-26T18:20:57.651Z,7.10
2018-01-26T18:23:25.076Z,7.63
2018-01-26T18:25:52.496Z,8.73
2018-01-26T18:28:19.912Z,7.93
2018-01-26T18:30:47.335Z,9.60
2018-01-26T18:33:14.760Z,10.30
2018-01-26T18:35:42.200Z,11.20
2018-01-26T18:38:09.620Z,11.63
2018-01-26T18:40:37.048Z,13.80
2018-01-26T18:43:04.473Z,14.73
2018-01-26T18:45:31.903Z,12.90
2018-01-26T18:47:59.323Z,16.07
2018-01-26T18:50:27.524Z,16.43
2018-01-26T18:52:54.943Z,16.03
2018-01-26T18:55:22.375Z,13.97
2018-01-26T18:57:50.569Z,15.43
2018-01-26T19:00:18.011Z,12.10
2018-01-26T19:02:45.507Z,10.87
2018-01-26T19:05:12.928Z,17.00
2018-01-26T19:07:40.381Z,40.07
2018-01-26T19:10:07.800Z,23.90
2018-01-26T19:12:35.436Z,17.73
2018-01-26T19:15:02.859Z,17.23
2018-01-26T19:17:30.300Z,21.50
2018-01-26T19:19:57.727Z,29.27
2018-01-26T19:22:25.159Z,33.10
2018-01-26T19:24:52.583Z,20.07
2018-01-26T19:27:20.023Z,18.67
2018-01-26T19:29:47.448Z,25.27
2018-01-26T19:32:14.879Z,19.57
2018-01-26T19:34:42.301Z,26.47
2018-01-26T19:37:09.735Z,20.70
2018-01-26T19:39:37.165Z,15.57
2018-01-26T19:42:04.578Z,18.30
2018-01-26T19:44:32.779Z,17.10
2018-01-26T19:47:00.211Z,22.70
2018-01-26T19:49:27.647Z,29.87
2018-01-26T19:51:55.096Z,42.87
2018-01-26T19:54:22.536Z,40.80
2018-01-26T19:56:49.973Z,30.03
2018-01-26T19:59:17.403Z,21.67
2018-01-26T20:01:44.824Z,15.77
2018-01-26T20:04:12.259Z,14.97
2018-01-26T20:06:57.255Z,12.50
2018-01-26T20:09:25.584Z,14.37
2018-01-26T20:11:58.612Z,12.80
2018-01-26T20:14:26.044Z,10.70
2018-01-26T20:16:53.477Z,11.67
2018-01-26T20:19:20.902Z,10.93
2018-01-26T20:21:48.327Z,10.85
2018-01-26T20:24:15.763Z,12.47
2018-01-26T20:26:43.183Z,10.83
2018-01-26T20:29:10.619Z,13.63
2018-01-26T20:31:38.048Z,12.40
2018-01-26T20:34:05.471Z,11.40
2018-01-26T20:36:32.899Z,12.60
2018-01-26T20:39:00.323Z,15.60
2018-01-26T20:41:27.892Z,32.20
2018-01-26T20:43:55.316Z,50.17
2018-01-26T20:46:22.771Z,52.40
2018-01-26T20:48:50.321Z,42.43
2018-01-26T20:51:17.752Z,26.17
2018-01-26T20:53:45.170Z,28.47
2018-01-26T20:56:12.604Z,22.07
2018-01-26T20:58:40.027Z,20.37
2018-01-26T21:01:07.463Z,19.13
2018-01-26T21:03:35.848Z,19.00
2018-01-26T21:06:03.278Z,25.10
2018-01-26T21:08:31.475Z,19.30
2018-01-26T21:10:58.907Z,14.87
2018-01-26T21:13:26.328Z,13.93
2018-01-26T21:15:53.743Z,16.57
2018-01-26T21:18:21.203Z,16.93
2018-01-26T21:20:48.683Z,16.07
2018-01-26T21:23:16.268Z,24.37
2018-01-26T21:25:43.684Z,16.00
2018-01-26T21:28:11.120Z,17.70
2018-01-26T21:30:38.548Z,30.10
2018-01-26T21:33:05.979Z,24.83
2018-01-26T21:35:33.414Z,28.13
2018-01-26T21:38:00.848Z,24.50
2018-01-26T21:40:28.271Z,26.07
2018-01-26T21:42:55.704Z,29.13
2018-01-26T21:45:23.127Z,21.27
2018-01-26T21:47:50.556Z,16.97
2018-01-26T21:50:18.003Z,20.00
2018-01-26T21:52:45.415Z,20.97
2018-01-26T21:55:12.840Z,22.87
2018-01-26T21:57:40.267Z,22.87
2018-01-26T22:00:08.455Z,23.60
2018-01-26T22:02:35.880Z,23.43
2018-01-26T22:05:18.752Z,26.10
2018-01-26T22:07:46.179Z,23.90
2018-01-26T22:10:13.608Z,30.90
2018-01-26T22:12:41.025Z,28.40
2018-01-26T22:15:08.463Z,27.30
2018-01-26T22:17:35.887Z,22.20
2018-01-26T22:20:04.079Z,15.67
2018-01-26T22:22:31.503Z,13.47
2018-01-26T22:24:58.936Z,15.80
2018-01-26T22:27:26.367Z,13.20
2018-01-26T22:29:53.792Z,12.93
2018-01-26T22:32:21.207Z,9.57
2018-01-26T22:34:48.634Z,12.27
2018-01-26T22:37:16.055Z,11.37
2018-01-26T22:39:44.255Z,12.77
2018-01-26T22:42:11.667Z,10.77
2018-01-26T22:44:39.122Z,13.20
2018-01-26T22:47:06.559Z,12.77
2018-01-26T22:49:34.036Z,12.90
2018-01-26T22:52:01.453Z,11.70
2018-01-26T22:54:28.871Z,11.63
2018-01-26T22:56:57.268Z,11.47
2018-01-26T22:59:24.683Z,11.60
2018-01-26T23:01:52.119Z,10.93
2018-01-26T23:04:19.543Z,18.53
2018-01-26T23:06:46.967Z,12.37
2018-01-26T23:09:14.423Z,11.87
2018-01-26T23:11:41.827Z,13.03
2018-01-26T23:14:09.250Z,11.10
2018-01-26T23:16:36.680Z,11.10
2018-01-26T23:19:04.099Z,11.23
2018-01-26T23:21:31.524Z,11.00
2018-01-26T23:23:58.980Z,10.73
2018-01-26T23:26:26.427Z,13.40
2018-01-26T23:28:53.852Z,11.53
2018-01-26T23:31:21.279Z,15.07
2018-01-26T23:33:48.712Z,11.97
2018-01-26T23:36:16.177Z,10.60
2018-01-26T23:38:43.632Z,12.43
2018-01-26T23:41:11.047Z,9.00
2018-01-26T23:43:38.479Z,10.47
2018-01-26T23:46:06.079Z,9.90
2018-01-26T23:48:33.508Z,10.90
2018-01-26T23:51:01.696Z,9.03
2018-01-26T23:53:29.119Z,9.77
2018-01-26T23:55:56.647Z,11.70
2018-01-26T23:58:24.083Z,13.17
